»·PEaware :: QXE2352 KSEA-KBLI

QXE2352 :: KSEA-KBLI

FLIGHT INFORMATION

Flight Status: Arrived
Operator:
Horizon Air
More flights by this operator :: More flights under this callsign
Pilot: Anonymous 28048 (28048)
Aircraft: DEHAVILLAND DASH 8 400
(DH8D)
More flights by this aircraft type
Origin: KSEA Seattle-Tacoma Intl
United States
Destination: KBLI Bellingham Intl
United States
More flights between these airports :: More routes between these airports
Route: PAE MADEE4
File this flight plan on PilotEdge
Remarks:
Altitude:
(Current/Filed)
12,000ft
Speed:
(Current/Filed)
350kts
Departed: 09-Jul-20 07:00 PM
Arrived: 09-Jul-20 07:38 PM
Distance/Time
Traveled:
81nm/0:38
Distance/Time
To Go:
Arrived

Flight Plot

Page will automatically refresh every two minutes.

Flight plan parsing failed; only flown route is shown


Map Options




Map Legend


Flown Route
Filed Route
Departure Airport
Arrival Airport
Navaid (VOR, NDB)
Fix

Horizontal Profiles

Position Reports

Time Latitude Longitude Heading Altitude Ground
Speed
09-Jul-20 18:16 47.443733 -122.304400 358 441ft 0kts
09-Jul-20 18:17 47.443733 -122.304400 358 441ft 0kts
09-Jul-20 18:18 47.443733 -122.304400 358 441ft 0kts
09-Jul-20 18:19 47.443733 -122.304400 358 441ft 0kts
09-Jul-20 18:20 47.443733 -122.304400 358 441ft 0kts
09-Jul-20 18:21 47.443733 -122.304400 358 441ft 0kts
09-Jul-20 18:22 47.443733 -122.304400 358 441ft 0kts
09-Jul-20 18:23 47.443733 -122.304400 358 441ft 0kts
09-Jul-20 18:24 47.443733 -122.304400 358 441ft 0kts
09-Jul-20 18:25 47.443733 -122.304400 358 441ft 0kts
09-Jul-20 18:27 47.443733 -122.304400 358 441ft 0kts
09-Jul-20 18:28 47.443733 -122.304400 358 441ft 0kts
09-Jul-20 18:29 47.443733 -122.304400 358 441ft 0kts
09-Jul-20 18:30 47.443733 -122.304400 358 441ft 0kts
09-Jul-20 18:31 47.443733 -122.304400 358 441ft 0kts
09-Jul-20 18:32 47.443733 -122.304400 358 441ft 0kts
09-Jul-20 18:33 47.443733 -122.304400 358 441ft 0kts
09-Jul-20 18:34 47.443733 -122.304400 358 441ft 0kts
09-Jul-20 18:35 47.443733 -122.304400 358 441ft 0kts
09-Jul-20 18:36 47.443733 -122.304400 358 441ft 0kts
09-Jul-20 18:37 47.443733 -122.304400 358 441ft 0kts
09-Jul-20 18:38 47.443733 -122.304400 358 441ft 0kts
09-Jul-20 18:39 47.443733 -122.304400 358 441ft 0kts
09-Jul-20 18:40 47.443733 -122.304400 358 441ft 0kts
09-Jul-20 18:41 47.443733 -122.304400 358 441ft 0kts
09-Jul-20 18:42 47.443733 -122.304400 358 441ft 0kts
09-Jul-20 18:42 47.443733 -122.304400 358 441ft 0kts
09-Jul-20 18:44 47.443733 -122.304400 358 441ft 0kts
09-Jul-20 18:45 47.443733 -122.304400 358 441ft 0kts
09-Jul-20 18:45 47.443733 -122.304400 358 440ft 0kts
09-Jul-20 18:47 47.443636 -122.304397 356 440ft 2kts
09-Jul-20 18:47 47.443361 -122.304174 248 440ft 0kts
09-Jul-20 18:48 47.443361 -122.304174 248 440ft 0kts
09-Jul-20 18:50 47.443361 -122.304174 248 440ft 0kts
09-Jul-20 18:50 47.443361 -122.304174 248 440ft 0kts
09-Jul-20 18:51 47.443361 -122.304174 248 440ft 0kts
09-Jul-20 18:52 47.444429 -122.306334 1 440ft 19kts
09-Jul-20 18:53 47.451656 -122.306263 359 440ft 29kts
09-Jul-20 18:54 47.459886 -122.306205 0 440ft 33kts
09-Jul-20 18:55 47.463677 -122.306457 304 440ft 0kts
09-Jul-20 18:56 47.463665 -122.306432 304 440ft 0kts
09-Jul-20 18:57 47.463648 -122.306394 304 440ft 0kts
09-Jul-20 18:58 47.462604 -122.307803 180 440ft 0kts
09-Jul-20 18:59 47.453183 -122.307863 179 443ft 130kts
09-Jul-20 19:00 47.410595 -122.298263 169 2600ft 189kts
09-Jul-20 19:01 47.346976 -122.296391 181 3005ft 253kts
09-Jul-20 19:02 47.276062 -122.296538 181 3006ft 252kts
09-Jul-20 19:03 47.208931 -122.297677 194 4704ft 221kts
09-Jul-20 19:04 47.195862 -122.369277 312 7197ft 230kts
09-Jul-20 19:05 47.260233 -122.378447 3 9358ft 247kts
09-Jul-20 19:06 47.329925 -122.367565 2 11270ft 256kts
09-Jul-20 19:07 47.403966 -122.356148 2 11991ft 289kts
09-Jul-20 19:08 47.489045 -122.343570 2 12012ft 321kts
09-Jul-20 19:09 47.579793 -122.330094 3 12011ft 334kts
09-Jul-20 19:10 47.672757 -122.315918 3 12012ft 339kts
09-Jul-20 19:11 47.766846 -122.301475 3 12017ft 340kts
09-Jul-20 19:12 47.860991 -122.286927 3 12030ft 341kts
09-Jul-20 19:13 47.951070 -122.284891 346 12038ft 337kts
09-Jul-20 19:14 48.042866 -122.313507 346 12036ft 338kts
09-Jul-20 19:15 48.127185 -122.337870 346 12035ft 338kts
09-Jul-20 19:16 48.221157 -122.365185 346 12032ft 337kts
09-Jul-20 19:17 48.313215 -122.392010 347 11817ft 339kts
09-Jul-20 19:18 48.401219 -122.417894 346 9990ft 301kts
09-Jul-20 19:19 48.476932 -122.440203 346 8184ft 260kts
09-Jul-20 19:20 48.542093 -122.459277 346 6513ft 239kts
09-Jul-20 19:21 48.611891 -122.480147 346 6038ft 261kts
09-Jul-20 19:22 48.683097 -122.501259 346 6014ft 261kts
09-Jul-20 19:23 48.754135 -122.522398 346 6002ft 260kts
09-Jul-20 19:24 48.824238 -122.543191 347 5483ft 246kts
09-Jul-20 19:25 48.885015 -122.561455 347 3972ft 207kts
09-Jul-20 19:26 48.939539 -122.574891 6 3209ft 192kts
09-Jul-20 19:27 48.989448 -122.542784 26 2308ft 197kts
09-Jul-20 19:28 49.035713 -122.539489 330 2028ft 181kts
09-Jul-20 19:29 49.081435 -122.567306 13 1971ft 180kts
09-Jul-20 19:30 49.081521 -122.505718 159 1994ft 195kts
09-Jul-20 19:31 49.029624 -122.522872 194 1991ft 192kts
09-Jul-20 19:32 48.978565 -122.535204 185 1989ft 181kts
09-Jul-20 19:33 48.927479 -122.538325 180 1996ft 186kts
09-Jul-20 19:34 48.876939 -122.538179 179 1636ft 172kts
09-Jul-20 19:35 48.839154 -122.537637 179 914ft 127kts
09-Jul-20 19:36 48.804910 -122.537543 177 269ft 123kts
09-Jul-20 19:37 48.785274 -122.537476 180 177ft 23kts
09-Jul-20 19:38 48.784317 -122.535596 359 177ft 0kts
09-Jul-20 19:39 48.787003 -122.535780 0 177ft 23kts
09-Jul-20 19:40 48.793646 -122.535683 26 177ft 18kts

Navigation Log

Ident Type
Flight plan parsing failed, navigation log unavailable